Brunswick Golden Isles Airport
KBQK : now visible

Airfield :











YOU CAN JOIN US ON...

 
LOGIN :

Register | Disclaimer

   EN    FR    IT 

 









Legend :    VFR   Marginal VFR   IFR   Intensive IFR   Very Intensive IFR
Visi :
Ceiling :
>= 8 km
>= 3000ft
5 to 8 km
1000 to 3000 ft
1500m to 5 km
500 to 1000 ft
800 to 1500m
200 to 500 ft
< 800m
< 200 ft
Symbols :   Thunderstorms  Fog  Heavy snow  Heavy precipitations  Wind > 20 kt






- Airport Elevation : 26 ft
- IATA code : BQK


KBQK - Brunswick Golden Isles

CURRENT METAR :
  • 141855Z AUTO 17006KT 10SM SCT047 BKN055 BKN070 33/25 A2995 RMK AO2 LTG DSNT NW P0002 T03300247

EXPIRED METARs :
  • 141835Z AUTO 19010KT 10SM SCT047 SCT055 33/23 A2996 RMK AO2 P0001 T03310231
  • 141815Z AUTO 24007KT 10SM SCT045 SCT055 34/23 A2996 RMK AO2 LTG DSNT NW P0001 T03350227
  • 141755Z AUTO 25008KT 10SM SCT043 SCT049 32/23 A2997 RMK AO2 LTG DSNT W P0002 T03250230 10333 20248 60017
  • 141735Z AUTO 23008KT 10SM SCT040 33/24 A2998 RMK AO2 LTG DSNT W P0002 T03300238
  • 141715Z AUTO 23008KT 10SM SCT038 SCT046 32/24 A2999 RMK AO2 LTG DSNT W P0001 T03240236
  • 141655Z AUTO 23008KT 10SM SCT035 SCT042 32/24 A2999 RMK AO2 P0002 T03200239
  • 141635Z AUTO 27007KT 10SM BKN037 32/24 A3000 RMK AO2 P0002 T03190239
  • 141615Z AUTO 20009KT 10SM SCT037 32/24 A3001 RMK AO2 P0001 T03190237

TAF N/A
KZJX FIR / North America



MET'MAP, your aeronautical weather chart ! - Copyright ORBIFLY December 2007 - Disclaimer

ORBIFLY MET'MAP TEAM :

Programming & Development : Alexandra Zaïnal
Concept & original design : Baudouin d'Aumeries
Assistance for programming : Marc-Olivier Méhu
Technical & hardware support : Manuel Goepfert

Contact : metmap@orbifly.com




SOURCES & CREDITS :

   NOAA       Earth
Advisory